createdAt,value
2023-02-01T00:02:46.983Z,2.10
2023-02-01T00:07:49.629Z,2.00
2023-02-01T00:12:50.973Z,1.60
2023-02-01T00:17:55.745Z,1.90
2023-02-01T00:22:57.075Z,1.70
2023-02-01T00:27:59.925Z,1.80
2023-02-01T00:33:01.231Z,1.70
2023-02-01T00:38:03.490Z,1.80
2023-02-01T00:43:05.014Z,1.70
2023-02-01T00:48:06.493Z,1.40
2023-02-01T00:53:09.243Z,2.10
2023-02-01T00:58:10.767Z,1.80
2023-02-01T01:03:19.097Z,1.40
2023-02-01T01:08:20.658Z,1.70
2023-02-01T01:13:22.332Z,2.30
2023-02-01T01:18:23.807Z,1.60
2023-02-01T01:23:25.888Z,1.90
2023-02-01T01:28:27.465Z,1.70
2023-02-01T01:33:29.035Z,2.20
2023-02-01T01:38:30.503Z,1.80
2023-02-01T01:43:49.747Z,1.50
2023-02-01T01:49:00.995Z,1.70
2023-02-01T01:54:45.773Z,1.40
2023-02-01T01:59:50.624Z,1.60
2023-02-01T02:04:52.410Z,1.30
2023-02-01T02:10:00.466Z,2.00
2023-02-01T02:15:05.907Z,1.50
2023-02-01T02:20:36.649Z,1.60
2023-02-01T02:26:02.718Z,1.40
2023-02-01T02:31:13.463Z,2.30
2023-02-01T02:36:43.835Z,2.10
2023-02-01T02:42:20.324Z,1.60
2023-02-01T02:47:31.722Z,1.80
2023-02-01T02:52:55.316Z,1.80
2023-02-01T02:58:16.959Z,1.70
2023-02-01T03:03:37.370Z,2.00
2023-02-01T03:08:38.944Z,3.10
2023-02-01T03:14:00.998Z,2.80
2023-02-01T03:19:19.164Z,2.30
2023-02-01T03:24:33.736Z,1.90
2023-02-01T03:29:57.119Z,2.00
2023-02-01T03:34:59.308Z,2.50
2023-02-01T03:40:05.912Z,2.00
2023-02-01T03:45:14.545Z,2.00
2023-02-01T03:50:24.006Z,2.30
2023-02-01T03:55:28.741Z,1.80
2023-02-01T04:00:30.214Z,1.80
2023-02-01T04:05:32.702Z,1.80
2023-02-01T04:10:34.187Z,1.60
2023-02-01T04:15:35.881Z,1.90
2023-02-01T04:20:37.728Z,1.80
2023-02-01T04:25:39.200Z,2.30
2023-02-01T04:30:40.749Z,2.00
2023-02-01T04:35:42.350Z,2.10
2023-02-01T04:40:44.003Z,1.80
2023-02-01T04:45:49.711Z,2.00
2023-02-01T04:50:52.340Z,2.00
2023-02-01T04:55:54.676Z,2.70
2023-02-01T05:00:56.360Z,2.30
2023-02-01T05:05:58.027Z,2.50
2023-02-01T05:10:59.824Z,2.50
2023-02-01T05:16:01.635Z,2.30
2023-02-01T05:21:03.476Z,2.00
2023-02-01T05:26:05.244Z,2.10
2023-02-01T05:31:11.491Z,2.00
2023-02-01T05:36:13.405Z,1.50
2023-02-01T05:41:14.880Z,1.60
2023-02-01T05:46:16.769Z,1.90
2023-02-01T05:51:18.331Z,1.60
2023-02-01T05:56:19.895Z,2.20
2023-02-01T06:01:21.371Z,1.70
2023-02-01T06:06:22.838Z,1.60
2023-02-01T06:11:32.415Z,1.40
2023-02-01T06:16:34.594Z,2.00
2023-02-01T06:21:36.900Z,1.40
2023-02-01T06:26:39.591Z,1.40
2023-02-01T06:31:43.050Z,1.80
2023-02-01T06:36:44.664Z,1.20
2023-02-01T06:41:50.542Z,1.50
2023-02-01T06:46:52.159Z,1.40
2023-02-01T06:51:53.688Z,1.60
2023-02-01T06:56:55.561Z,2.30
2023-02-01T07:01:57.158Z,2.00
2023-02-01T07:06:58.814Z,1.90
2023-02-01T07:12:00.391Z,2.40
2023-02-01T07:17:01.955Z,2.70
2023-02-01T07:22:03.533Z,1.90
2023-02-01T07:27:05.103Z,2.20
2023-02-01T07:32:06.672Z,1.80
2023-02-01T07:37:08.141Z,1.70
2023-02-01T07:42:09.821Z,2.00
2023-02-01T07:47:11.389Z,2.20
2023-02-01T07:52:16.136Z,2.50
2023-02-01T07:57:17.608Z,1.80
2023-02-01T08:02:19.115Z,2.20
2023-02-01T08:07:20.957Z,1.80
2023-02-01T08:12:23.273Z,2.60
2023-02-01T08:17:26.767Z,1.90
2023-02-01T08:22:32.849Z,2.80
2023-02-01T08:27:35.162Z,1.90
2023-02-01T08:32:37.014Z,2.50
2023-02-01T08:37:39.102Z,2.40
2023-02-01T08:42:52.775Z,2.10
2023-02-01T08:47:54.679Z,2.60
2023-02-01T08:52:56.535Z,1.80
2023-02-01T08:57:58.193Z,2.30
2023-02-01T09:02:59.964Z,2.30
2023-02-01T09:08:01.554Z,2.20
2023-02-01T09:13:03.725Z,2.20
2023-02-01T09:18:05.289Z,2.20
2023-02-01T09:23:07.895Z,2.20
2023-02-01T09:28:09.667Z,2.40
2023-02-01T09:33:11.141Z,3.20
2023-02-01T09:38:12.732Z,2.10
2023-02-01T09:43:43.673Z,1.90
2023-02-01T09:48:47.400Z,2.70
2023-02-01T09:54:00.558Z,2.40
2023-02-01T09:59:41.547Z,2.30
2023-02-01T10:04:43.831Z,2.20
2023-02-01T10:10:00.385Z,2.00
2023-02-01T10:15:21.152Z,2.50
2023-02-01T10:21:07.500Z,2.30
2023-02-01T10:26:23.724Z,2.80
2023-02-01T10:31:29.372Z,2.60
2023-02-01T10:36:41.612Z,2.10
2023-02-01T10:41:46.771Z,2.50
2023-02-01T10:46:48.974Z,1.90
2023-02-01T10:52:02.915Z,2.20
2023-02-01T10:57:20.460Z,2.70
2023-02-01T11:02:36.474Z,3.00
2023-02-01T11:07:46.340Z,2.70
2023-02-01T11:12:54.518Z,2.30
2023-02-01T11:17:57.478Z,2.90
2023-02-01T11:23:00.090Z,2.90
2023-02-01T11:28:02.259Z,3.50
2023-02-01T11:33:06.826Z,3.40
2023-02-01T11:38:20.557Z,2.80
2023-02-01T11:43:28.518Z,3.00
2023-02-01T11:48:33.326Z,2.40
2023-02-01T11:54:02.966Z,2.90
2023-02-01T11:59:32.183Z,3.50
2023-02-01T12:04:55.786Z,4.40
2023-02-01T12:10:13.497Z,3.30
2023-02-01T12:15:47.596Z,3.60
2023-02-01T12:21:06.855Z,2.80
2023-02-01T12:26:08.310Z,2.00
2023-02-01T12:31:28.492Z,2.20
2023-02-01T12:36:33.172Z,2.10
2023-02-01T12:41:50.303Z,2.10
2023-02-01T12:47:30.378Z,2.10
2023-02-01T12:52:46.797Z,2.00
2023-02-01T12:58:07.729Z,2.80
2023-02-01T13:03:45.041Z,3.30
2023-02-01T13:09:10.244Z,3.20
2023-02-01T13:14:34.470Z,3.10
2023-02-01T13:19:35.943Z,3.80
2023-02-01T13:24:57.388Z,3.40
2023-02-01T13:30:30.837Z,3.50
2023-02-01T13:35:54.386Z,5.30
2023-02-01T13:41:17.768Z,4.60
2023-02-01T13:46:20.920Z,3.70
2023-02-01T13:51:36.683Z,4.20
2023-02-01T13:56:44.195Z,5.30
2023-02-01T14:01:47.073Z,5.10
2023-02-01T14:06:53.588Z,6.00
2023-02-01T14:11:59.640Z,7.20
2023-02-01T14:17:01.142Z,7.20
2023-02-01T14:22:14.897Z,5.90
2023-02-01T14:27:22.166Z,2.90
2023-02-01T14:32:28.485Z,3.80
2023-02-01T14:37:39.865Z,3.20
2023-02-01T14:42:47.248Z,3.30
2023-02-01T14:48:05.155Z,2.80
2023-02-01T14:53:12.792Z,2.80
2023-02-01T14:58:44.756Z,2.30
2023-02-01T15:04:07.951Z,2.80
2023-02-01T15:09:17.085Z,3.00
2023-02-01T15:14:18.656Z,2.60
2023-02-01T15:19:23.199Z,2.40
2023-02-01T15:24:30.615Z,2.50
2023-02-01T15:29:35.153Z,2.30
2023-02-01T15:34:50.382Z,3.10
2023-02-01T15:40:22.433Z,2.60
2023-02-01T15:45:30.250Z,2.70
2023-02-01T15:50:32.788Z,2.60
2023-02-01T15:55:40.386Z,3.20
2023-02-01T16:00:52.993Z,1.80
2023-02-01T16:06:00.498Z,2.20
2023-02-01T16:11:22.469Z,4.30
2023-02-01T16:16:25.561Z,3.50
2023-02-01T16:21:27.140Z,3.00
2023-02-01T16:26:28.742Z,3.00
2023-02-01T16:31:32.099Z,3.40
2023-02-01T16:36:34.581Z,3.00
2023-02-01T16:41:36.290Z,2.90
2023-02-01T16:46:44.101Z,4.50
2023-02-01T16:51:46.705Z,4.30
2023-02-01T16:56:48.568Z,3.70
2023-02-01T17:01:50.164Z,5.10
2023-02-01T17:06:51.737Z,4.40
2023-02-01T17:11:53.315Z,5.60
2023-02-01T17:16:55.140Z,3.90
2023-02-01T17:21:58.927Z,4.40
2023-02-01T17:27:00.528Z,4.80
2023-02-01T17:32:05.518Z,4.60
2023-02-01T17:37:26.183Z,3.50
2023-02-01T17:42:29.479Z,3.10
2023-02-01T17:47:31.045Z,3.30
2023-02-01T17:52:33.123Z,3.30
2023-02-01T17:57:34.695Z,2.70
2023-02-01T18:02:36.172Z,2.50
2023-02-01T18:07:37.736Z,2.70
2023-02-01T18:12:40.208Z,3.90
2023-02-01T18:17:41.807Z,4.30
2023-02-01T18:22:44.355Z,5.20
2023-02-01T18:27:47.202Z,4.40
2023-02-01T18:32:49.189Z,4.40
2023-02-01T18:37:52.923Z,3.30
2023-02-01T18:42:55.204Z,4.40
2023-02-01T18:48:00.321Z,4.90
2023-02-01T18:53:04.590Z,6.20
2023-02-01T18:58:06.862Z,4.20
2023-02-01T19:03:11.941Z,3.20
2023-02-01T19:08:13.506Z,3.70
2023-02-01T19:13:15.393Z,2.80
2023-02-01T19:18:19.824Z,6.70
2023-02-01T19:23:21.602Z,6.70
2023-02-01T19:28:23.376Z,6.00
2023-02-01T19:33:24.950Z,6.60
2023-02-01T19:38:26.630Z,5.60
2023-02-01T19:43:28.105Z,4.00
2023-02-01T19:48:31.542Z,4.00
2023-02-01T19:53:33.400Z,5.20
2023-02-01T19:58:34.962Z,3.70
2023-02-01T20:03:35.581Z,2.80
2023-02-01T20:08:37.046Z,3.90
2023-02-01T20:13:38.939Z,2.90
2023-02-01T20:18:40.507Z,4.00
2023-02-01T20:23:41.980Z,4.40
2023-02-01T20:28:44.412Z,4.30
2023-02-01T20:33:46.606Z,3.80
2023-02-01T20:38:48.132Z,4.80
2023-02-01T20:43:50.290Z,4.40
2023-02-01T20:48:52.045Z,5.20
2023-02-01T20:53:55.049Z,5.00
2023-02-01T20:59:02.467Z,4.60
2023-02-01T21:04:04.048Z,4.60
2023-02-01T21:09:05.520Z,4.50
2023-02-01T21:14:07.292Z,4.00
2023-02-01T21:19:09.479Z,5.90
2023-02-01T21:24:11.775Z,5.20
2023-02-01T21:29:14.983Z,4.50
2023-02-01T21:34:17.082Z,3.30
2023-02-01T21:39:18.740Z,3.90
2023-02-01T21:44:21.442Z,5.10
2023-02-01T21:49:27.010Z,4.50
2023-02-01T21:54:28.585Z,5.10
2023-02-01T21:59:30.155Z,5.00
2023-02-01T22:04:32.428Z,5.30
2023-02-01T22:09:34.734Z,5.80
2023-02-01T22:14:36.306Z,5.60
2023-02-01T22:19:38.592Z,4.90
2023-02-01T22:24:40.062Z,5.80
2023-02-01T22:29:42.973Z,6.00
2023-02-01T22:34:44.639Z,4.90
2023-02-01T22:39:46.111Z,5.80
2023-02-01T22:44:47.573Z,5.80
2023-02-01T22:49:50.270Z,5.00
2023-02-01T22:54:51.732Z,5.60
2023-02-01T22:59:53.300Z,5.20
2023-02-01T23:04:54.867Z,5.30
2023-02-01T23:09:56.436Z,5.00
2023-02-01T23:15:07.543Z,5.40
2023-02-01T23:20:15.475Z,4.90
2023-02-01T23:25:18.148Z,4.00
2023-02-01T23:30:20.441Z,4.60
2023-02-01T23:35:22.155Z,5.00
2023-02-01T23:40:24.507Z,4.00
2023-02-01T23:45:27.627Z,4.70
2023-02-01T23:50:29.187Z,5.70
2023-02-01T23:55:30.862Z,6.50
